KLVK

Livermore Municipal Airport

Livermore, California, USA
METAR KLVK 181553Z 00000KT 10SM CLR 02/M02 A3022 RMK AO2 SLP233 T00171017
Observed Flight Rules
Dec-18 @ 15:53 UTC (40 minutes ago) Visual Flight Rules
Wind Visibility Clouds
Calm 10 miles
  • Clear skies
Temperatures Readings
Current 2°C / 36°F
Dewpoint -2°C / 28°F
Humidity 75%
Altimeter 30.22" Hg
Pressure 1023.3 hPa
Elevation 117
METAR KLVK 181553Z 00000KT 10SM CLR 02/M02 A3022 RMK AO2 SLP233 T00171017
Observed Flight Rules
Dec-18 @ 15:53 UTC
(40 minutes ago)
VFR
Wind Visibility
Calm 10 miles
Clouds
  • Clear skies
Temperature Dewpoint
2°C / 36°F -2°C / 28°F
Humidity Altimeter Pressure
75% 30.22" Hg 1023.3 hPa